createdAt,value
2023-05-25T00:01:01.839Z,49.27
2023-05-25T00:01:53.131Z,56.54
2023-05-25T00:02:51.204Z,48.73
2023-05-25T00:03:51.191Z,47.46
2023-05-25T00:04:51.083Z,51.06
2023-05-25T00:05:51.067Z,53.94
2023-05-25T00:06:51.050Z,54.19
2023-05-25T00:07:51.028Z,48.90
2023-05-25T00:08:51.035Z,49.93
2023-05-25T00:09:51.031Z,55.68
2023-05-25T00:10:51.052Z,47.28
2023-05-25T00:11:51.011Z,48.19
2023-05-25T00:12:50.999Z,48.62
2023-05-25T00:13:50.983Z,51.38
2023-05-25T00:14:50.991Z,53.86
2023-05-25T00:15:50.995Z,53.29
2023-05-25T00:16:50.993Z,46.64
2023-05-25T00:17:50.983Z,51.18
2023-05-25T00:18:50.977Z,53.72
2023-05-25T00:19:50.996Z,53.46
2023-05-25T00:20:50.976Z,50.20
2023-05-25T00:21:50.943Z,48.67
2023-05-25T00:22:50.929Z,51.96
2023-05-25T00:23:50.935Z,52.43
2023-05-25T00:24:50.915Z,53.22
2023-05-25T00:25:50.962Z,50.92
2023-05-25T00:26:50.916Z,53.98
2023-05-25T00:27:50.887Z,49.87
2023-05-25T00:28:50.882Z,51.05
2023-05-25T00:29:50.878Z,50.99
2023-05-25T00:30:50.907Z,49.66
2023-05-25T00:31:50.876Z,53.52
2023-05-25T00:32:50.876Z,50.28
2023-05-25T00:33:50.856Z,54.85
2023-05-25T00:34:50.859Z,54.71
2023-05-25T00:35:51.020Z,52.42
2023-05-25T00:36:50.839Z,52.49
2023-05-25T00:37:50.829Z,48.59
2023-05-25T00:38:50.828Z,48.08
2023-05-25T00:39:50.823Z,51.95
2023-05-25T00:40:50.951Z,54.59
2023-05-25T00:41:50.829Z,54.52
2023-05-25T00:42:50.800Z,49.74
2023-05-25T00:43:50.781Z,46.39
2023-05-25T00:44:50.777Z,48.91
2023-05-25T00:45:50.784Z,51.02
2023-05-25T00:46:50.849Z,50.43
2023-05-25T00:47:50.808Z,53.12
2023-05-25T00:48:50.752Z,50.56
2023-05-25T00:49:50.792Z,51.45
2023-05-25T00:50:50.769Z,47.97
2023-05-25T00:51:50.764Z,49.95
2023-05-25T00:52:50.751Z,54.74
2023-05-25T00:53:50.740Z,51.50
2023-05-25T00:54:50.717Z,51.53
2023-05-25T00:55:50.715Z,52.97
2023-05-25T00:56:50.711Z,53.54
2023-05-25T00:57:50.709Z,53.05
2023-05-25T00:58:50.706Z,49.51
2023-05-25T00:59:50.719Z,48.47
2023-05-25T01:00:50.697Z,52.15
2023-05-25T01:01:50.739Z,51.33
2023-05-25T01:02:50.749Z,48.84
2023-05-25T01:03:50.707Z,46.14
2023-05-25T01:04:50.688Z,46.13
2023-05-25T01:05:50.652Z,48.71
2023-05-25T01:06:50.658Z,51.87
2023-05-25T01:07:50.639Z,50.68
2023-05-25T01:08:50.624Z,48.30
2023-05-25T01:09:50.621Z,50.52
2023-05-25T01:10:50.618Z,50.34
2023-05-25T01:11:50.605Z,49.99
2023-05-25T01:12:50.607Z,49.22
2023-05-25T01:13:50.604Z,50.47
2023-05-25T01:14:50.617Z,52.04
2023-05-25T01:15:50.596Z,47.93
2023-05-25T01:16:50.674Z,49.72
2023-05-25T01:17:50.616Z,51.53
2023-05-25T01:18:50.605Z,50.74
2023-05-25T01:20:05.570Z,54.92
2023-05-25T01:20:52.599Z,52.89
2023-05-25T01:21:50.542Z,48.87
2023-05-25T01:22:50.542Z,49.38
2023-05-25T01:23:51.527Z,47.42
2023-05-25T01:24:50.518Z,50.73
2023-05-25T01:25:50.540Z,50.68
2023-05-25T01:26:50.512Z,49.97
2023-05-25T01:27:50.504Z,53.31
2023-05-25T01:28:50.506Z,48.45
2023-05-25T01:29:50.491Z,54.02
2023-05-25T01:30:50.522Z,50.89
2023-05-25T01:31:50.502Z,51.72
2023-05-25T01:32:50.489Z,51.99
2023-05-25T01:33:50.457Z,51.69
2023-05-25T01:34:50.454Z,53.02
2023-05-25T01:35:50.462Z,51.81
2023-05-25T01:36:50.450Z,49.68
2023-05-25T01:37:50.448Z,50.69
2023-05-25T01:38:50.425Z,51.28
2023-05-25T01:39:50.424Z,53.09
2023-05-25T01:40:50.430Z,50.27
2023-05-25T01:41:50.446Z,48.69
2023-05-25T01:42:50.421Z,55.23
2023-05-25T01:43:50.406Z,52.83
2023-05-25T01:44:50.437Z,50.34
2023-05-25T01:45:50.408Z,48.77
2023-05-25T01:46:50.373Z,48.86
2023-05-25T01:47:50.417Z,50.25
2023-05-25T01:48:50.374Z,46.70
2023-05-25T01:49:50.364Z,52.83
2023-05-25T01:50:50.359Z,51.76
2023-05-25T01:51:50.452Z,53.27
2023-05-25T01:52:50.349Z,53.10
2023-05-25T01:53:50.344Z,54.86
2023-05-25T01:54:50.345Z,52.45
2023-05-25T01:55:50.331Z,53.32
2023-05-25T01:56:50.317Z,50.09
2023-05-25T01:57:50.307Z,51.82
2023-05-25T01:58:51.352Z,47.19
2023-05-25T01:59:50.304Z,50.41
2023-05-25T02:00:50.362Z,51.89
2023-05-25T02:01:52.936Z,51.02
2023-05-25T02:02:51.296Z,53.78
2023-05-25T02:03:50.331Z,53.04
2023-05-25T02:04:50.349Z,53.54
2023-05-25T02:05:50.258Z,53.62
2023-05-25T02:06:50.263Z,52.85
2023-05-25T02:07:50.244Z,49.98
2023-05-25T02:08:50.235Z,51.71
2023-05-25T02:09:50.232Z,51.16
2023-05-25T02:10:50.228Z,47.95
2023-05-25T02:11:50.204Z,51.38
2023-05-25T02:12:50.241Z,50.50
2023-05-25T02:13:50.198Z,54.90
2023-05-25T02:14:50.216Z,54.10
2023-05-25T02:15:50.212Z,53.10
2023-05-25T02:16:50.184Z,55.29
2023-05-25T02:17:50.241Z,53.63
2023-05-25T02:18:50.177Z,51.10
2023-05-25T02:19:50.198Z,54.49
2023-05-25T02:20:50.172Z,53.23
2023-05-25T02:21:50.148Z,51.61
2023-05-25T02:22:50.168Z,53.74
2023-05-25T02:23:50.142Z,56.01
2023-05-25T02:24:50.148Z,52.70
2023-05-25T02:25:50.124Z,52.99
2023-05-25T02:26:50.112Z,56.84
2023-05-25T02:27:50.115Z,55.52
2023-05-25T02:28:50.105Z,54.57
2023-05-25T02:29:50.098Z,52.97
2023-05-25T02:30:50.094Z,55.90
2023-05-25T02:31:50.236Z,56.90
2023-05-25T02:32:50.143Z,55.84
2023-05-25T02:33:50.082Z,55.22
2023-05-25T02:34:50.069Z,52.31
2023-05-25T02:35:50.087Z,55.35
2023-05-25T02:36:50.056Z,56.52
2023-05-25T02:37:51.214Z,54.12
2023-05-25T02:38:51.043Z,56.54
2023-05-25T02:39:50.019Z,59.90
2023-05-25T02:40:50.033Z,55.75
2023-05-25T02:41:50.044Z,50.98
2023-05-25T02:42:50.042Z,53.33
2023-05-25T02:43:49.996Z,54.99
2023-05-25T02:44:49.991Z,53.59
2023-05-25T02:45:49.988Z,56.05
2023-05-25T02:46:50.006Z,55.47
2023-05-25T02:47:50.232Z,55.87
2023-05-25T02:48:49.985Z,53.06
2023-05-25T02:49:49.968Z,57.80
2023-05-25T02:50:49.943Z,56.29
2023-05-25T02:51:49.945Z,54.41
2023-05-25T02:52:49.941Z,52.66
2023-05-25T02:53:49.947Z,53.71
2023-05-25T02:54:49.939Z,57.89
2023-05-25T02:55:49.913Z,54.05
2023-05-25T02:56:49.902Z,56.76
2023-05-25T02:57:49.889Z,54.50
2023-05-25T02:58:49.905Z,56.62
2023-05-25T02:59:49.900Z,54.42
2023-05-25T03:00:49.886Z,57.85
2023-05-25T03:01:49.869Z,57.62
2023-05-25T03:02:49.941Z,58.59
2023-05-25T03:03:49.907Z,58.48
2023-05-25T03:04:49.910Z,54.88
2023-05-25T03:05:49.845Z,56.88
2023-05-25T03:06:49.836Z,55.33
2023-05-25T03:07:49.829Z,57.60
2023-05-25T03:08:49.821Z,57.56
2023-05-25T03:09:49.820Z,54.88
2023-05-25T03:10:49.812Z,54.65
2023-05-25T03:11:49.817Z,56.61
2023-05-25T03:12:49.794Z,56.27
2023-05-25T03:13:49.779Z,57.41
2023-05-25T03:14:49.810Z,54.96
2023-05-25T03:15:49.784Z,55.13
2023-05-25T03:16:52.173Z,54.56
2023-05-25T03:17:49.842Z,55.09
2023-05-25T03:18:49.741Z,54.40
2023-05-25T03:19:49.747Z,55.36
2023-05-25T03:20:49.745Z,55.54
2023-05-25T03:21:49.721Z,54.22
2023-05-25T03:22:49.783Z,55.32
2023-05-25T03:23:49.748Z,55.79
2023-05-25T03:24:49.720Z,54.11
2023-05-25T03:25:49.713Z,54.18
2023-05-25T03:26:49.730Z,56.65
2023-05-25T03:27:49.689Z,57.17
2023-05-25T03:28:49.704Z,58.01
2023-05-25T03:29:49.677Z,55.00
2023-05-25T03:30:49.671Z,56.15
2023-05-25T03:31:49.721Z,56.58
2023-05-25T03:32:49.713Z,54.42
2023-05-25T03:33:49.696Z,56.47
2023-05-25T03:34:49.684Z,58.25
2023-05-25T03:35:49.654Z,56.33
2023-05-25T03:36:49.656Z,58.20
2023-05-25T03:37:49.638Z,58.96
2023-05-25T03:38:49.627Z,57.23
2023-05-25T03:39:49.610Z,58.62
2023-05-25T03:40:49.583Z,58.60
2023-05-25T03:41:49.592Z,58.52
2023-05-25T03:42:49.600Z,59.13
2023-05-25T03:43:49.589Z,59.33
2023-05-25T03:44:49.570Z,57.81
2023-05-25T03:45:49.595Z,57.71
2023-05-25T03:46:49.552Z,58.82
2023-05-25T03:47:49.620Z,57.49
2023-05-25T03:48:49.583Z,58.01
2023-05-25T03:49:49.562Z,56.48
2023-05-25T03:50:49.544Z,55.87
2023-05-25T03:51:49.545Z,58.03
2023-05-25T03:52:49.572Z,57.37
2023-05-25T03:53:49.505Z,56.92
2023-05-25T03:54:49.489Z,57.02
2023-05-25T03:55:49.481Z,56.07
2023-05-25T03:56:49.496Z,54.49
2023-05-25T03:57:49.475Z,54.55
2023-05-25T03:58:49.468Z,57.01
2023-05-25T03:59:49.468Z,54.22
2023-05-25T04:00:49.461Z,55.78
2023-05-25T04:01:49.460Z,56.28
2023-05-25T04:02:49.483Z,54.18
2023-05-25T04:03:49.539Z,55.56
2023-05-25T04:04:49.502Z,56.40
2023-05-25T04:05:49.429Z,55.24
2023-05-25T04:06:49.486Z,55.50
2023-05-25T04:07:49.410Z,56.65
2023-05-25T04:08:49.409Z,56.23
2023-05-25T04:09:49.393Z,54.90
2023-05-25T04:10:49.377Z,56.53
2023-05-25T04:11:49.399Z,56.23
2023-05-25T04:12:49.369Z,55.99
2023-05-25T04:13:49.404Z,55.83
2023-05-25T04:14:49.360Z,56.81
2023-05-25T04:15:49.354Z,55.64
2023-05-25T04:16:49.458Z,55.50
2023-05-25T04:17:49.368Z,56.08
2023-05-25T04:18:49.344Z,57.58
2023-05-25T04:19:49.344Z,57.74
2023-05-25T04:20:49.353Z,57.02
2023-05-25T04:21:49.315Z,56.87
2023-05-25T04:22:49.305Z,57.84
2023-05-25T04:23:49.310Z,56.55
2023-05-25T04:24:49.284Z,56.21
2023-05-25T04:25:49.311Z,56.33
2023-05-25T04:26:49.272Z,56.83
2023-05-25T04:27:49.274Z,55.07
2023-05-25T04:28:49.279Z,56.70
2023-05-25T04:29:49.262Z,56.51
2023-05-25T04:30:49.335Z,57.82
2023-05-25T04:31:49.264Z,56.66
2023-05-25T04:32:49.258Z,57.11
2023-05-25T04:33:49.274Z,57.89
2023-05-25T04:34:49.226Z,57.31
2023-05-25T04:35:49.217Z,55.83
2023-05-25T04:36:49.213Z,56.05
2023-05-25T04:37:49.208Z,56.91
2023-05-25T04:38:49.190Z,56.76
2023-05-25T04:39:49.186Z,56.69
2023-05-25T04:40:49.187Z,55.99
2023-05-25T04:41:49.196Z,57.28
2023-05-25T04:42:49.186Z,56.91
2023-05-25T04:44:04.549Z,58.33
2023-05-25T04:44:51.153Z,55.38
2023-05-25T04:45:49.160Z,54.74
2023-05-25T04:46:49.184Z,58.58
2023-05-25T04:47:49.164Z,57.36
2023-05-25T04:48:49.129Z,56.82
2023-05-25T04:49:49.150Z,57.71
2023-05-25T04:50:49.136Z,57.37
2023-05-25T04:51:50.121Z,55.98
2023-05-25T04:52:49.105Z,56.50
2023-05-25T04:53:49.126Z,56.31
2023-05-25T04:54:49.098Z,55.57
2023-05-25T04:55:49.079Z,55.47
2023-05-25T04:56:49.099Z,54.95
2023-05-25T04:57:49.068Z,55.69
2023-05-25T04:58:49.099Z,55.17
2023-05-25T04:59:49.048Z,56.36
2023-05-25T05:00:50.664Z,56.18
2023-05-25T05:01:49.123Z,57.26
2023-05-25T05:02:49.167Z,57.63
2023-05-25T05:03:49.090Z,56.87
2023-05-25T05:04:49.019Z,56.78
2023-05-25T05:05:49.025Z,56.33
2023-05-25T05:06:49.025Z,54.85
2023-05-25T05:07:49.000Z,57.66
2023-05-25T05:08:49.011Z,57.24
2023-05-25T05:09:49.006Z,57.20
2023-05-25T05:10:49.009Z,55.81
2023-05-25T05:11:48.979Z,55.84
2023-05-25T05:12:49.018Z,56.20
2023-05-25T05:13:48.979Z,56.72
2023-05-25T05:14:48.976Z,56.76
2023-05-25T05:15:48.950Z,57.50
2023-05-25T05:16:49.020Z,57.23
2023-05-25T05:17:48.984Z,55.89
2023-05-25T05:18:48.965Z,56.71
2023-05-25T05:19:48.934Z,57.83
2023-05-25T05:20:48.911Z,55.40
2023-05-25T05:21:48.913Z,57.29
2023-05-25T05:22:48.908Z,57.32
2023-05-25T05:23:48.919Z,56.26
2023-05-25T05:24:48.957Z,56.88
2023-05-25T05:25:48.898Z,56.49
2023-05-25T05:26:58.437Z,57.15
2023-05-25T05:27:50.897Z,57.97
2023-05-25T05:28:48.873Z,58.41
2023-05-25T05:29:48.872Z,56.51
2023-05-25T05:30:48.859Z,55.85
2023-05-25T05:31:48.879Z,57.41
2023-05-25T05:32:48.886Z,56.88
2023-05-25T05:33:48.875Z,57.67
2023-05-25T05:34:48.835Z,57.29
2023-05-25T05:35:48.837Z,56.63
2023-05-25T05:36:57.431Z,57.67
2023-05-25T05:37:50.818Z,56.65
2023-05-25T05:38:48.820Z,56.82
2023-05-25T05:39:48.805Z,55.39
2023-05-25T05:40:48.839Z,55.00
2023-05-25T05:41:48.776Z,56.22
2023-05-25T05:42:48.803Z,56.81
2023-05-25T05:43:48.770Z,57.00
2023-05-25T05:44:48.761Z,55.90
2023-05-25T05:45:48.776Z,54.78
2023-05-25T05:46:48.885Z,55.24
2023-05-25T05:47:48.764Z,55.20
2023-05-25T05:48:48.763Z,57.21
2023-05-25T05:49:48.735Z,54.43
2023-05-25T05:50:48.726Z,55.14
2023-05-25T05:51:48.731Z,53.81
2023-05-25T05:52:48.728Z,52.41
2023-05-25T05:53:48.716Z,53.87
2023-05-25T05:54:48.703Z,53.90
2023-05-25T05:55:51.733Z,55.29
2023-05-25T05:56:48.686Z,54.40
2023-05-25T05:57:48.704Z,52.38
2023-05-25T05:58:48.672Z,55.16
2023-05-25T05:59:49.676Z,53.94
2023-05-25T06:00:48.700Z,53.28
2023-05-25T06:01:48.702Z,54.49
2023-05-25T06:02:48.757Z,55.18
2023-05-25T06:03:48.658Z,55.05
2023-05-25T06:04:48.645Z,55.97
2023-05-25T06:05:48.662Z,56.79
2023-05-25T06:06:48.634Z,55.43
2023-05-25T06:07:48.614Z,54.22
2023-05-25T06:08:48.611Z,53.86
2023-05-25T06:09:48.606Z,55.25
2023-05-25T06:10:48.589Z,55.81
2023-05-25T06:11:48.593Z,54.75
2023-05-25T06:12:48.643Z,56.34
2023-05-25T06:13:48.643Z,55.66
2023-05-25T06:14:48.571Z,54.02
2023-05-25T06:15:48.560Z,54.66
2023-05-25T06:16:48.692Z,56.03
2023-05-25T06:17:48.584Z,55.34
2023-05-25T06:18:48.555Z,56.45
2023-05-25T06:19:49.344Z,56.69
2023-05-25T06:20:48.597Z,56.48
2023-05-25T06:21:48.536Z,57.46
2023-05-25T06:22:48.550Z,55.98
2023-05-25T06:23:48.529Z,56.96
2023-05-25T06:24:48.508Z,54.90
2023-05-25T06:25:49.340Z,56.54
2023-05-25T06:26:48.495Z,54.18
2023-05-25T06:27:48.481Z,56.28
2023-05-25T06:28:48.503Z,56.40
2023-05-25T06:29:48.471Z,55.97
2023-05-25T06:30:49.460Z,56.62
2023-05-25T06:31:48.474Z,56.95
2023-05-25T06:32:48.464Z,55.10
2023-05-25T06:33:48.536Z,56.25
2023-05-25T06:34:48.464Z,55.23
2023-05-25T06:35:48.554Z,56.13
2023-05-25T06:36:48.427Z,56.49
2023-05-25T06:37:48.412Z,56.02
2023-05-25T06:38:48.431Z,56.28
2023-05-25T06:39:48.392Z,57.15
2023-05-25T06:40:48.429Z,55.15
2023-05-25T06:41:48.392Z,56.04
2023-05-25T06:42:48.368Z,55.39
2023-05-25T06:43:48.363Z,56.28
2023-05-25T06:44:48.383Z,54.47
2023-05-25T06:45:48.468Z,57.83
2023-05-25T06:46:48.436Z,56.49
2023-05-25T06:47:48.371Z,54.66
2023-05-25T06:48:48.397Z,56.16
2023-05-25T06:49:48.367Z,54.94
2023-05-25T06:50:48.311Z,55.16
2023-05-25T06:51:48.333Z,53.68
2023-05-25T06:52:48.303Z,53.47
2023-05-25T06:53:48.297Z,52.35
2023-05-25T06:54:48.295Z,54.51
2023-05-25T06:55:48.286Z,54.57
2023-05-25T06:56:48.281Z,53.04
2023-05-25T06:57:48.262Z,56.15
2023-05-25T06:58:48.267Z,53.26
2023-05-25T06:59:48.289Z,53.61
2023-05-25T07:00:48.239Z,55.36
2023-05-25T07:01:48.324Z,52.67
2023-05-25T07:02:48.300Z,54.22
2023-05-25T07:03:48.247Z,56.20
2023-05-25T07:04:48.242Z,53.32
2023-05-25T07:05:48.220Z,54.67
2023-05-25T07:06:48.212Z,54.58
2023-05-25T07:07:48.210Z,56.38
2023-05-25T07:08:48.190Z,56.17
2023-05-25T07:09:48.185Z,54.29
2023-05-25T07:10:50.167Z,54.51
2023-05-25T07:11:49.170Z,54.48
2023-05-25T07:12:48.162Z,55.20
2023-05-25T07:13:48.147Z,53.17
2023-05-25T07:14:48.171Z,56.13
2023-05-25T07:15:48.455Z,53.20
2023-05-25T07:16:48.213Z,53.01
2023-05-25T07:17:48.135Z,51.81
2023-05-25T07:18:48.125Z,54.88
2023-05-25T07:19:48.127Z,52.40
2023-05-25T07:20:48.192Z,54.03
2023-05-25T07:21:48.120Z,53.84
2023-05-25T07:22:48.087Z,55.11
2023-05-25T07:23:48.085Z,52.33
2023-05-25T07:24:48.090Z,52.81
2023-05-25T07:25:48.076Z,54.58
2023-05-25T07:26:48.083Z,53.92
2023-05-25T07:27:48.057Z,54.07
2023-05-25T07:28:48.052Z,54.28
2023-05-25T07:29:48.042Z,53.17
2023-05-25T07:30:48.038Z,54.61
2023-05-25T07:31:48.138Z,56.02
2023-05-25T07:32:48.095Z,53.95
2023-05-25T07:33:48.041Z,54.86
2023-05-25T07:34:48.020Z,55.36
2023-05-25T07:35:48.021Z,53.46
2023-05-25T07:36:48.001Z,55.07
2023-05-25T07:37:47.983Z,53.52
2023-05-25T07:38:47.979Z,52.58
2023-05-25T07:39:47.955Z,52.28
2023-05-25T07:40:47.973Z,59.11
2023-05-25T07:41:47.947Z,55.36
2023-05-25T07:42:47.948Z,54.48
2023-05-25T07:43:47.941Z,54.66
2023-05-25T07:44:47.935Z,58.05
2023-05-25T07:45:47.929Z,54.66
2023-05-25T07:46:47.961Z,54.37
2023-05-25T07:47:47.967Z,52.68
2023-05-25T07:48:47.907Z,54.30
2023-05-25T07:49:47.924Z,53.34
2023-05-25T07:50:47.892Z,60.36
2023-05-25T07:51:47.893Z,55.21
2023-05-25T07:52:47.916Z,52.73
2023-05-25T07:53:47.869Z,53.34
2023-05-25T07:54:47.881Z,51.89
2023-05-25T07:55:47.956Z,49.85
2023-05-25T07:56:47.874Z,52.84
2023-05-25T07:57:47.844Z,52.15
2023-05-25T07:58:47.859Z,50.83
2023-05-25T07:59:47.841Z,50.90
2023-05-25T08:00:47.840Z,50.59
2023-05-25T08:01:47.903Z,51.45
2023-05-25T08:02:47.998Z,53.47
2023-05-25T08:03:49.959Z,54.88
2023-05-25T08:04:48.834Z,51.74
2023-05-25T08:05:47.799Z,54.49
2023-05-25T08:06:47.790Z,52.43
2023-05-25T08:07:47.781Z,51.73
2023-05-25T08:08:47.768Z,56.99
2023-05-25T08:09:47.794Z,55.42
2023-05-25T08:10:47.760Z,58.88
2023-05-25T08:11:47.766Z,64.99
2023-05-25T08:12:50.190Z,73.19
2023-05-25T08:13:48.738Z,74.13
2023-05-25T08:14:47.727Z,73.32
2023-05-25T08:15:47.758Z,72.49
2023-05-25T08:16:47.764Z,72.29
2023-05-25T08:17:47.739Z,76.07
2023-05-25T08:18:47.713Z,74.25
2023-05-25T08:19:47.713Z,64.17
2023-05-25T08:20:47.763Z,55.32
2023-05-25T08:21:47.680Z,59.43
2023-05-25T08:22:47.684Z,53.22
2023-05-25T08:23:47.663Z,66.10
2023-05-25T08:24:47.732Z,69.42
2023-05-25T08:25:47.747Z,68.90
2023-05-25T08:27:49.632Z,66.42
2023-05-25T08:28:47.625Z,59.62
2023-05-25T08:29:47.621Z,53.08
2023-05-25T08:30:47.674Z,53.98
2023-05-25T08:31:47.620Z,53.37
2023-05-25T08:32:47.687Z,50.49
2023-05-25T08:33:47.595Z,51.42
2023-05-25T08:34:47.581Z,47.20
2023-05-25T08:35:47.598Z,48.54
2023-05-25T08:36:47.575Z,51.70
2023-05-25T08:37:47.569Z,50.97
2023-05-25T08:38:47.554Z,49.28
2023-05-25T08:39:47.546Z,52.20
2023-05-25T08:40:47.561Z,52.25
2023-05-25T08:41:47.543Z,53.99
2023-05-25T08:42:47.568Z,52.08
2023-05-25T08:43:47.520Z,52.91
2023-05-25T08:44:47.529Z,53.01
2023-05-25T08:45:47.654Z,53.13
2023-05-25T08:46:47.533Z,52.56
2023-05-25T08:47:47.571Z,52.86
2023-05-25T08:48:47.606Z,64.71
2023-05-25T08:49:47.588Z,73.25
2023-05-25T08:50:47.480Z,75.13
2023-05-25T08:51:47.475Z,71.82
2023-05-25T08:52:47.490Z,76.61
2023-05-25T08:53:47.505Z,51.77
2023-05-25T08:54:47.457Z,51.18
2023-05-25T08:55:47.517Z,49.88
2023-05-25T08:56:47.452Z,48.96
2023-05-25T08:57:47.448Z,50.76
2023-05-25T08:58:47.440Z,52.73
2023-05-25T08:59:47.473Z,49.79
2023-05-25T09:00:47.412Z,51.18
2023-05-25T09:01:47.424Z,51.36
2023-05-25T09:02:47.727Z,63.72
2023-05-25T09:03:47.528Z,72.08
2023-05-25T09:04:47.488Z,76.35
2023-05-25T09:05:47.413Z,71.52
2023-05-25T09:06:54.209Z,72.18
2023-05-25T09:07:49.393Z,73.98
2023-05-25T09:08:47.362Z,70.81
2023-05-25T09:09:47.359Z,73.64
2023-05-25T09:10:47.382Z,71.07
2023-05-25T09:11:47.341Z,73.15
2023-05-25T09:12:47.336Z,75.76
2023-05-25T09:13:47.325Z,72.09
2023-05-25T09:14:47.323Z,66.94
2023-05-25T09:15:47.372Z,66.31
2023-05-25T09:16:47.360Z,59.32
2023-05-25T09:17:47.315Z,70.51
2023-05-25T09:18:47.302Z,72.40
2023-05-25T09:19:47.304Z,62.44
2023-05-25T09:20:48.013Z,52.13
2023-05-25T09:21:47.289Z,51.38
2023-05-25T09:22:47.309Z,47.64
2023-05-25T09:23:47.258Z,48.73
2023-05-25T09:24:47.266Z,47.48
2023-05-25T09:25:47.272Z,48.45
2023-05-25T09:26:48.262Z,49.61
2023-05-25T09:27:48.249Z,48.51
2023-05-25T09:28:47.266Z,47.73
2023-05-25T09:29:47.230Z,48.64
2023-05-25T09:30:47.265Z,48.70
2023-05-25T09:31:47.258Z,47.51
2023-05-25T09:32:47.234Z,49.90
2023-05-25T09:33:47.208Z,45.47
2023-05-25T09:34:47.242Z,45.34
2023-05-25T09:35:48.199Z,45.79
2023-05-25T09:36:47.341Z,46.40
2023-05-25T09:37:47.278Z,47.10
2023-05-25T09:38:47.390Z,47.86
2023-05-25T09:39:47.261Z,48.53
2023-05-25T09:40:47.520Z,48.26
2023-05-25T09:41:47.197Z,47.06
2023-05-25T09:42:47.185Z,47.75
2023-05-25T09:44:01.397Z,50.06
2023-05-25T09:44:49.148Z,49.17
2023-05-25T09:45:47.194Z,51.40
2023-05-25T09:46:47.239Z,49.45
2023-05-25T09:47:47.163Z,49.57
2023-05-25T09:48:47.157Z,50.59
2023-05-25T09:49:47.139Z,48.28
2023-05-25T09:50:49.620Z,49.14
2023-05-25T09:51:47.107Z,49.56
2023-05-25T09:52:47.100Z,48.41
2023-05-25T09:54:19.045Z,48.77
2023-05-25T09:54:47.075Z,51.53
2023-05-25T09:55:53.956Z,47.55
2023-05-25T09:56:49.078Z,49.42
2023-05-25T09:57:47.066Z,48.97
2023-05-25T09:58:47.056Z,45.49
2023-05-25T09:59:47.087Z,48.76
2023-05-25T10:00:47.176Z,50.81
2023-05-25T10:01:47.120Z,51.47
2023-05-25T10:02:47.061Z,51.80
2023-05-25T10:03:59.721Z,51.54
2023-05-25T10:04:49.109Z,52.50
2023-05-25T10:05:47.013Z,48.81
2023-05-25T10:06:47.011Z,50.42
2023-05-25T10:07:47.005Z,50.97
2023-05-25T10:08:46.990Z,51.15
2023-05-25T10:09:46.991Z,49.11
2023-05-25T10:10:47.188Z,50.16
2023-05-25T10:11:46.989Z,51.91
2023-05-25T10:12:46.975Z,49.86
2023-05-25T10:13:46.960Z,45.80
2023-05-25T10:14:46.953Z,46.39
2023-05-25T10:15:46.972Z,51.41
2023-05-25T10:16:46.976Z,52.34
2023-05-25T10:17:46.991Z,50.80
2023-05-25T10:18:46.938Z,51.63
2023-05-25T10:19:46.921Z,52.14
2023-05-25T10:20:47.028Z,47.59
2023-05-25T10:21:47.008Z,46.25
2023-05-25T10:22:46.897Z,47.27
2023-05-25T10:23:46.906Z,44.76
2023-05-25T10:24:46.888Z,42.45
2023-05-25T10:25:46.919Z,47.10
2023-05-25T10:26:46.928Z,45.74
2023-05-25T10:27:46.886Z,47.31
2023-05-25T10:28:46.871Z,47.68
2023-05-25T10:29:46.865Z,46.91
2023-05-25T10:30:46.851Z,47.00
2023-05-25T10:31:46.893Z,46.30
2023-05-25T10:32:46.910Z,46.79
2023-05-25T10:33:50.558Z,46.46
2023-05-25T10:34:48.829Z,48.82
2023-05-25T10:36:02.516Z,45.71
2023-05-25T10:36:48.859Z,46.87
2023-05-25T10:37:46.804Z,46.83
2023-05-25T10:38:46.818Z,46.09
2023-05-25T10:39:46.811Z,48.69
2023-05-25T10:40:46.801Z,48.08
2023-05-25T10:41:46.807Z,48.29
2023-05-25T10:42:46.809Z,48.53
2023-05-25T10:43:46.778Z,48.20
2023-05-25T10:44:46.846Z,47.98
2023-05-25T10:45:46.932Z,49.05
2023-05-25T10:46:46.818Z,47.18
2023-05-25T10:47:46.928Z,48.58
2023-05-25T10:48:46.748Z,49.64
2023-05-25T10:49:46.776Z,50.64
2023-05-25T10:50:46.736Z,49.77
2023-05-25T10:51:46.726Z,48.25
2023-05-25T10:52:46.751Z,47.67
2023-05-25T10:53:46.725Z,49.97
2023-05-25T10:54:46.715Z,49.23
2023-05-25T10:55:46.915Z,52.00
2023-05-25T10:56:46.719Z,51.14
2023-05-25T10:57:46.699Z,47.67
2023-05-25T10:58:46.736Z,48.25
2023-05-25T10:59:46.742Z,50.16
2023-05-25T11:00:46.748Z,49.37
2023-05-25T11:01:46.732Z,50.94
2023-05-25T11:02:46.664Z,51.84
2023-05-25T11:03:46.689Z,48.38
2023-05-25T11:04:46.678Z,46.74
2023-05-25T11:05:46.902Z,48.57
2023-05-25T11:06:46.641Z,48.32
2023-05-25T11:07:46.661Z,48.23
2023-05-25T11:08:46.635Z,49.03
2023-05-25T11:09:46.660Z,50.00
2023-05-25T11:10:46.619Z,49.54
2023-05-25T11:11:46.633Z,51.66
2023-05-25T11:12:46.598Z,50.94
2023-05-25T11:13:46.599Z,50.90
2023-05-25T11:14:46.592Z,50.54
2023-05-25T11:15:46.761Z,50.27
2023-05-25T11:16:46.627Z,49.83
2023-05-25T11:17:46.616Z,49.30
2023-05-25T11:18:46.567Z,49.70
2023-05-25T11:19:47.970Z,49.48
2023-05-25T11:20:46.689Z,50.83
2023-05-25T11:21:46.567Z,53.15
2023-05-25T11:22:46.542Z,53.00
2023-05-25T11:23:46.555Z,51.33
2023-05-25T11:24:46.532Z,52.78
2023-05-25T11:25:46.645Z,51.74
2023-05-25T11:26:46.527Z,49.23
2023-05-25T11:27:46.568Z,48.71
2023-05-25T11:28:46.531Z,49.28
2023-05-25T11:29:46.492Z,49.37
2023-05-25T11:30:46.507Z,50.16
2023-05-25T11:31:46.495Z,47.73
2023-05-25T11:32:46.488Z,46.10
2023-05-25T11:33:46.481Z,49.70
2023-05-25T11:34:46.504Z,50.19
2023-05-25T11:35:46.688Z,44.74
2023-05-25T11:36:46.453Z,45.93
2023-05-25T11:37:46.488Z,46.27
2023-05-25T11:38:56.250Z,46.82
2023-05-25T11:39:48.445Z,51.39
2023-05-25T11:40:46.740Z,47.84
2023-05-25T11:41:46.428Z,49.28
2023-05-25T11:42:46.412Z,49.99
2023-05-25T11:43:46.425Z,46.50
2023-05-25T11:44:46.433Z,47.72
2023-05-25T11:45:46.418Z,50.30
2023-05-25T11:46:46.478Z,49.29
2023-05-25T11:47:46.417Z,49.33
2023-05-25T11:48:46.397Z,51.05
2023-05-25T11:49:46.412Z,48.12
2023-05-25T11:50:46.480Z,47.54
2023-05-25T11:51:46.377Z,47.86
2023-05-25T11:52:46.378Z,49.45
2023-05-25T11:53:46.359Z,50.20
2023-05-25T11:54:46.407Z,48.36
2023-05-25T11:55:46.356Z,48.38
2023-05-25T11:56:46.332Z,49.56
2023-05-25T11:57:46.335Z,48.41
2023-05-25T11:58:46.318Z,48.04
2023-05-25T11:59:46.311Z,49.63
2023-05-25T12:00:46.482Z,49.37
2023-05-25T12:01:46.299Z,49.82
2023-05-25T12:02:46.362Z,49.54
2023-05-25T12:03:46.741Z,49.07
2023-05-25T12:04:46.358Z,46.76
2023-05-25T12:05:46.391Z,47.61
2023-05-25T12:06:46.273Z,49.06
2023-05-25T12:07:46.288Z,49.47
2023-05-25T12:08:46.261Z,49.73
2023-05-25T12:09:46.277Z,48.09
2023-05-25T12:10:47.709Z,50.31
2023-05-25T12:11:46.263Z,49.32
2023-05-25T12:12:46.251Z,51.75
2023-05-25T12:13:46.233Z,49.58
2023-05-25T12:14:46.242Z,51.87
2023-05-25T12:15:46.319Z,52.38
2023-05-25T12:16:46.303Z,53.09
2023-05-25T12:17:46.208Z,51.95
2023-05-25T12:18:46.236Z,48.34
2023-05-25T12:19:46.206Z,48.80
2023-05-25T12:20:46.605Z,47.61
2023-05-25T12:21:46.197Z,50.22
2023-05-25T12:22:46.234Z,52.16
2023-05-25T12:23:46.164Z,51.91
2023-05-25T12:24:46.169Z,49.39
2023-05-25T12:25:50.853Z,51.23
2023-05-25T12:26:48.163Z,51.29
2023-05-25T12:27:46.155Z,52.76
2023-05-25T12:28:46.129Z,49.87
2023-05-25T12:29:46.151Z,51.37
2023-05-25T12:30:46.145Z,51.15
2023-05-25T12:31:46.128Z,50.59
2023-05-25T12:32:46.158Z,52.70
2023-05-25T12:33:46.105Z,53.10
2023-05-25T12:34:46.098Z,50.85
2023-05-25T12:35:46.386Z,48.86
2023-05-25T12:36:46.092Z,49.28
2023-05-25T12:37:46.089Z,49.83
2023-05-25T12:38:46.075Z,50.99
2023-05-25T12:39:46.077Z,48.89
2023-05-25T12:40:46.303Z,49.76
2023-05-25T12:41:46.085Z,49.77
2023-05-25T12:42:46.079Z,50.00
2023-05-25T12:43:46.048Z,50.71
2023-05-25T12:44:46.058Z,51.58
2023-05-25T12:45:46.036Z,52.50
2023-05-25T12:46:46.050Z,51.47
2023-05-25T12:47:46.040Z,50.44
2023-05-25T12:48:46.013Z,54.40
2023-05-25T12:49:46.038Z,51.02
2023-05-25T12:50:46.254Z,51.37
2023-05-25T12:51:45.998Z,47.80
2023-05-25T12:52:45.997Z,49.39
2023-05-25T12:53:45.983Z,50.12